sensor_id;sensor_type;location;lat;lon;timestamp;P1;durP1;ratioP1;P2;durP2;ratioP2
21258;SDS011;10787;53.364;-1.480;2023-02-10T00:02:24;11.27;;;2.83;;
21258;SDS011;10787;53.364;-1.480;2023-02-10T00:04:50;10.30;;;3.03;;
21258;SDS011;10787;53.364;-1.480;2023-02-10T00:07:18;11.07;;;3.00;;
21258;SDS011;10787;53.364;-1.480;2023-02-10T00:09:44;10.43;;;2.93;;
21258;SDS011;10787;53.364;-1.480;2023-02-10T00:12:10;10.60;;;3.00;;
21258;SDS011;10787;53.364;-1.480;2023-02-10T00:14:37;12.50;;;3.27;;
21258;SDS011;10787;53.364;-1.480;2023-02-10T00:17:03;11.67;;;3.10;;
21258;SDS011;10787;53.364;-1.480;2023-02-10T00:19:29;14.13;;;3.73;;
21258;SDS011;10787;53.364;-1.480;2023-02-10T00:21:59;11.27;;;3.50;;
21258;SDS011;10787;53.364;-1.480;2023-02-10T00:24:26;15.60;;;3.67;;
21258;SDS011;10787;53.364;-1.480;2023-02-10T00:26:52;13.50;;;3.70;;
21258;SDS011;10787;53.364;-1.480;2023-02-10T00:29:18;11.40;;;3.40;;
21258;SDS011;10787;53.364;-1.480;2023-02-10T00:31:44;10.80;;;3.50;;
21258;SDS011;10787;53.364;-1.480;2023-02-10T00:34:12;8.70;;;3.20;;
21258;SDS011;10787;53.364;-1.480;2023-02-10T00:36:39;14.27;;;3.40;;
21258;SDS011;10787;53.364;-1.480;2023-02-10T00:39:05;13.23;;;3.67;;
21258;SDS011;10787;53.364;-1.480;2023-02-10T00:41:31;11.53;;;3.53;;
21258;SDS011;10787;53.364;-1.480;2023-02-10T00:43:57;10.87;;;3.67;;
21258;SDS011;10787;53.364;-1.480;2023-02-10T00:46:23;10.07;;;3.33;;
21258;SDS011;10787;53.364;-1.480;2023-02-10T00:48:49;10.17;;;3.50;;
21258;SDS011;10787;53.364;-1.480;2023-02-10T00:51:15;14.17;;;3.60;;
21258;SDS011;10787;53.364;-1.480;2023-02-10T00:53:42;12.07;;;3.53;;
21258;SDS011;10787;53.364;-1.480;2023-02-10T00:56:08;9.33;;;3.33;;
21258;SDS011;10787;53.364;-1.480;2023-02-10T00:58:34;12.60;;;3.37;;
21258;SDS011;10787;53.364;-1.480;2023-02-10T01:01:00;13.00;;;3.50;;
21258;SDS011;10787;53.364;-1.480;2023-02-10T01:03:27;13.50;;;3.07;;
21258;SDS011;10787;53.364;-1.480;2023-02-10T01:05:53;13.30;;;3.60;;
21258;SDS011;10787;53.364;-1.480;2023-02-10T01:08:18;17.03;;;3.60;;
21258;SDS011;10787;53.364;-1.480;2023-02-10T01:10:44;14.20;;;3.50;;
21258;SDS011;10787;53.364;-1.480;2023-02-10T01:13:12;12.17;;;3.67;;
21258;SDS011;10787;53.364;-1.480;2023-02-10T01:15:45;15.03;;;3.50;;
21258;SDS011;10787;53.364;-1.480;2023-02-10T01:18:11;13.97;;;3.40;;
21258;SDS011;10787;53.364;-1.480;2023-02-10T01:20:38;12.90;;;3.60;;
21258;SDS011;10787;53.364;-1.480;2023-02-10T01:23:05;13.10;;;3.60;;
21258;SDS011;10787;53.364;-1.480;2023-02-10T01:25:32;14.13;;;3.83;;
21258;SDS011;10787;53.364;-1.480;2023-02-10T01:27:59;13.23;;;3.63;;
21258;SDS011;10787;53.364;-1.480;2023-02-10T01:30:25;10.13;;;3.53;;
21258;SDS011;10787;53.364;-1.480;2023-02-10T01:32:53;12.13;;;3.67;;
21258;SDS011;10787;53.364;-1.480;2023-02-10T01:35:20;14.67;;;3.93;;
21258;SDS011;10787;53.364;-1.480;2023-02-10T01:37:46;15.83;;;4.00;;
21258;SDS011;10787;53.364;-1.480;2023-02-10T01:40:12;10.13;;;3.53;;
21258;SDS011;10787;53.364;-1.480;2023-02-10T01:42:37;12.90;;;4.40;;
21258;SDS011;10787;53.364;-1.480;2023-02-10T01:47:42;14.70;;;4.57;;
21258;SDS011;10787;53.364;-1.480;2023-02-10T01:50:12;18.23;;;4.27;;
21258;SDS011;10787;53.364;-1.480;2023-02-10T01:52:38;13.97;;;3.83;;
21258;SDS011;10787;53.364;-1.480;2023-02-10T01:55:05;11.83;;;3.77;;
21258;SDS011;10787;53.364;-1.480;2023-02-10T01:57:33;16.17;;;3.80;;
21258;SDS011;10787;53.364;-1.480;2023-02-10T02:00:03;13.00;;;3.60;;
21258;SDS011;10787;53.364;-1.480;2023-02-10T02:02:29;11.67;;;3.70;;
21258;SDS011;10787;53.364;-1.480;2023-02-10T02:05:00;11.90;;;3.70;;
21258;SDS011;10787;53.364;-1.480;2023-02-10T02:07:32;9.00;;;3.40;;
21258;SDS011;10787;53.364;-1.480;2023-02-10T02:10:01;11.83;;;3.77;;
21258;SDS011;10787;53.364;-1.480;2023-02-10T02:13:04;11.03;;;3.33;;
21258;SDS011;10787;53.364;-1.480;2023-02-10T02:15:37;15.17;;;3.70;;
21258;SDS011;10787;53.364;-1.480;2023-02-10T02:21:06;13.00;;;3.73;;
21258;SDS011;10787;53.364;-1.480;2023-02-10T02:23:45;10.90;;;3.83;;
21258;SDS011;10787;53.364;-1.480;2023-02-10T02:29:30;13.20;;;3.77;;
21258;SDS011;10787;53.364;-1.480;2023-02-10T02:32:14;16.27;;;3.60;;
21258;SDS011;10787;53.364;-1.480;2023-02-10T02:34:48;9.73;;;3.43;;
21258;SDS011;10787;53.364;-1.480;2023-02-10T02:37:19;13.90;;;3.70;;
21258;SDS011;10787;53.364;-1.480;2023-02-10T02:39:58;12.40;;;3.70;;
21258;SDS011;10787;53.364;-1.480;2023-02-10T02:45:12;11.30;;;3.47;;
21258;SDS011;10787;53.364;-1.480;2023-02-10T02:59:00;16.03;;;3.50;;
21258;SDS011;10787;53.364;-1.480;2023-02-10T03:01:35;13.30;;;3.33;;
21258;SDS011;10787;53.364;-1.480;2023-02-10T03:04:17;13.23;;;3.20;;
21258;SDS011;10787;53.364;-1.480;2023-02-10T03:06:43;8.63;;;2.60;;
21258;SDS011;10787;53.364;-1.480;2023-02-10T03:09:09;14.87;;;3.03;;
21258;SDS011;10787;53.364;-1.480;2023-02-10T03:11:36;10.57;;;3.10;;
21258;SDS011;10787;53.364;-1.480;2023-02-10T03:14:01;11.13;;;2.90;;
21258;SDS011;10787;53.364;-1.480;2023-02-10T03:16:27;12.20;;;2.90;;
21258;SDS011;10787;53.364;-1.480;2023-02-10T03:18:53;10.70;;;2.47;;
21258;SDS011;10787;53.364;-1.480;2023-02-10T03:21:19;13.00;;;2.67;;
21258;SDS011;10787;53.364;-1.480;2023-02-10T03:23:45;11.63;;;3.27;;
21258;SDS011;10787;53.364;-1.480;2023-02-10T03:26:11;10.00;;;2.87;;
21258;SDS011;10787;53.364;-1.480;2023-02-10T03:28:37;12.73;;;2.83;;
21258;SDS011;10787;53.364;-1.480;2023-02-10T03:31:03;9.43;;;3.07;;
21258;SDS011;10787;53.364;-1.480;2023-02-10T03:33:30;10.23;;;2.40;;
21258;SDS011;10787;53.364;-1.480;2023-02-10T03:35:56;9.07;;;2.40;;
21258;SDS011;10787;53.364;-1.480;2023-02-10T03:38:23;8.73;;;2.80;;
21258;SDS011;10787;53.364;-1.480;2023-02-10T03:40:50;9.40;;;2.73;;
21258;SDS011;10787;53.364;-1.480;2023-02-10T03:43:17;12.70;;;3.03;;
21258;SDS011;10787;53.364;-1.480;2023-02-10T03:45:44;9.53;;;2.47;;
21258;SDS011;10787;53.364;-1.480;2023-02-10T03:48:09;13.77;;;3.10;;
21258;SDS011;10787;53.364;-1.480;2023-02-10T03:50:35;10.10;;;2.73;;
21258;SDS011;10787;53.364;-1.480;2023-02-10T03:53:01;12.10;;;2.40;;
21258;SDS011;10787;53.364;-1.480;2023-02-10T03:55:27;8.13;;;2.40;;
21258;SDS011;10787;53.364;-1.480;2023-02-10T03:57:53;8.60;;;2.40;;
21258;SDS011;10787;53.364;-1.480;2023-02-10T04:00:19;7.10;;;2.03;;
21258;SDS011;10787;53.364;-1.480;2023-02-10T04:02:45;11.50;;;2.30;;
21258;SDS011;10787;53.364;-1.480;2023-02-10T04:05:11;10.27;;;2.20;;
21258;SDS011;10787;53.364;-1.480;2023-02-10T04:07:37;9.53;;;2.03;;
21258;SDS011;10787;53.364;-1.480;2023-02-10T04:10:03;7.73;;;2.13;;
21258;SDS011;10787;53.364;-1.480;2023-02-10T04:12:30;8.63;;;2.13;;
21258;SDS011;10787;53.364;-1.480;2023-02-10T04:14:56;9.60;;;2.07;;
21258;SDS011;10787;53.364;-1.480;2023-02-10T04:17:21;10.93;;;2.37;;
21258;SDS011;10787;53.364;-1.480;2023-02-10T04:19:47;6.73;;;1.80;;
21258;SDS011;10787;53.364;-1.480;2023-02-10T04:22:13;12.23;;;2.03;;
21258;SDS011;10787;53.364;-1.480;2023-02-10T04:24:39;8.90;;;2.10;;
21258;SDS011;10787;53.364;-1.480;2023-02-10T04:27:04;8.13;;;2.00;;
21258;SDS011;10787;53.364;-1.480;2023-02-10T04:29:30;8.87;;;2.03;;
21258;SDS011;10787;53.364;-1.480;2023-02-10T04:31:56;6.57;;;1.90;;
21258;SDS011;10787;53.364;-1.480;2023-02-10T04:34:22;8.57;;;2.10;;
21258;SDS011;10787;53.364;-1.480;2023-02-10T04:36:47;7.47;;;1.93;;
21258;SDS011;10787;53.364;-1.480;2023-02-10T04:39:13;9.03;;;2.00;;
21258;SDS011;10787;53.364;-1.480;2023-02-10T04:41:39;11.93;;;2.30;;
21258;SDS011;10787;53.364;-1.480;2023-02-10T04:44:05;12.77;;;2.23;;
21258;SDS011;10787;53.364;-1.480;2023-02-10T04:46:31;8.83;;;2.30;;
21258;SDS011;10787;53.364;-1.480;2023-02-10T04:48:56;10.73;;;2.27;;
21258;SDS011;10787;53.364;-1.480;2023-02-10T04:51:22;10.47;;;2.27;;
21258;SDS011;10787;53.364;-1.480;2023-02-10T04:53:48;7.43;;;2.03;;
21258;SDS011;10787;53.364;-1.480;2023-02-10T04:56:14;13.30;;;2.10;;
21258;SDS011;10787;53.364;-1.480;2023-02-10T04:58:40;11.57;;;2.27;;
21258;SDS011;10787;53.364;-1.480;2023-02-10T05:01:06;10.20;;;2.17;;
21258;SDS011;10787;53.364;-1.480;2023-02-10T05:03:32;7.83;;;2.00;;
21258;SDS011;10787;53.364;-1.480;2023-02-10T05:05:58;8.53;;;2.30;;
21258;SDS011;10787;53.364;-1.480;2023-02-10T05:08:24;10.97;;;2.13;;
21258;SDS011;10787;53.364;-1.480;2023-02-10T05:10:50;9.70;;;2.17;;
21258;SDS011;10787;53.364;-1.480;2023-02-10T05:13:16;12.37;;;2.30;;
21258;SDS011;10787;53.364;-1.480;2023-02-10T05:15:43;11.60;;;2.20;;
21258;SDS011;10787;53.364;-1.480;2023-02-10T05:18:09;12.17;;;2.20;;
21258;SDS011;10787;53.364;-1.480;2023-02-10T05:20:35;13.30;;;2.73;;
21258;SDS011;10787;53.364;-1.480;2023-02-10T05:23:01;11.07;;;2.40;;
21258;SDS011;10787;53.364;-1.480;2023-02-10T05:25:26;12.13;;;2.40;;
21258;SDS011;10787;53.364;-1.480;2023-02-10T05:27:52;11.50;;;2.60;;
21258;SDS011;10787;53.364;-1.480;2023-02-10T05:30:18;11.00;;;2.77;;
21258;SDS011;10787;53.364;-1.480;2023-02-10T05:32:44;8.67;;;2.40;;
21258;SDS011;10787;53.364;-1.480;2023-02-10T05:35:10;9.67;;;2.30;;
21258;SDS011;10787;53.364;-1.480;2023-02-10T05:37:36;11.40;;;2.70;;
21258;SDS011;10787;53.364;-1.480;2023-02-10T05:40:02;10.77;;;2.40;;
21258;SDS011;10787;53.364;-1.480;2023-02-10T05:42:28;8.00;;;2.60;;
21258;SDS011;10787;53.364;-1.480;2023-02-10T05:44:54;8.83;;;2.50;;
21258;SDS011;10787;53.364;-1.480;2023-02-10T05:47:20;15.83;;;3.00;;
21258;SDS011;10787;53.364;-1.480;2023-02-10T05:49:45;10.90;;;2.90;;
21258;SDS011;10787;53.364;-1.480;2023-02-10T05:52:11;10.27;;;2.80;;
21258;SDS011;10787;53.364;-1.480;2023-02-10T05:54:37;9.80;;;2.60;;
21258;SDS011;10787;53.364;-1.480;2023-02-10T05:57:05;10.80;;;2.83;;
21258;SDS011;10787;53.364;-1.480;2023-02-10T05:59:31;6.97;;;2.70;;
21258;SDS011;10787;53.364;-1.480;2023-02-10T06:01:57;11.73;;;3.10;;
21258;SDS011;10787;53.364;-1.480;2023-02-10T06:04:23;11.73;;;2.93;;
21258;SDS011;10787;53.364;-1.480;2023-02-10T06:06:49;11.80;;;3.00;;
21258;SDS011;10787;53.364;-1.480;2023-02-10T06:09:15;10.87;;;2.70;;
21258;SDS011;10787;53.364;-1.480;2023-02-10T06:11:41;13.10;;;2.50;;
21258;SDS011;10787;53.364;-1.480;2023-02-10T06:14:07;11.97;;;2.53;;
21258;SDS011;10787;53.364;-1.480;2023-02-10T06:16:33;12.77;;;2.50;;
21258;SDS011;10787;53.364;-1.480;2023-02-10T06:18:58;8.80;;;2.43;;
21258;SDS011;10787;53.364;-1.480;2023-02-10T06:21:24;10.73;;;2.43;;
21258;SDS011;10787;53.364;-1.480;2023-02-10T06:23:51;13.07;;;2.63;;
21258;SDS011;10787;53.364;-1.480;2023-02-10T06:26:17;10.43;;;2.80;;
21258;SDS011;10787;53.364;-1.480;2023-02-10T06:28:43;9.57;;;2.80;;
21258;SDS011;10787;53.364;-1.480;2023-02-10T06:31:09;13.97;;;2.77;;
21258;SDS011;10787;53.364;-1.480;2023-02-10T06:33:35;10.80;;;2.40;;
21258;SDS011;10787;53.364;-1.480;2023-02-10T06:36:02;11.03;;;2.43;;
21258;SDS011;10787;53.364;-1.480;2023-02-10T06:38:31;7.63;;;2.40;;
21258;SDS011;10787;53.364;-1.480;2023-02-10T06:40:57;11.73;;;2.30;;
21258;SDS011;10787;53.364;-1.480;2023-02-10T06:43:23;10.63;;;2.40;;
21258;SDS011;10787;53.364;-1.480;2023-02-10T06:45:49;9.00;;;2.30;;
21258;SDS011;10787;53.364;-1.480;2023-02-10T06:48:15;10.97;;;2.57;;
21258;SDS011;10787;53.364;-1.480;2023-02-10T06:50:41;10.33;;;3.40;;
21258;SDS011;10787;53.364;-1.480;2023-02-10T06:53:06;9.27;;;2.10;;
21258;SDS011;10787;53.364;-1.480;2023-02-10T06:55:32;10.17;;;2.80;;
21258;SDS011;10787;53.364;-1.480;2023-02-10T06:57:59;9.40;;;2.50;;
21258;SDS011;10787;53.364;-1.480;2023-02-10T07:00:25;14.40;;;2.87;;
21258;SDS011;10787;53.364;-1.480;2023-02-10T07:02:51;11.70;;;2.43;;
21258;SDS011;10787;53.364;-1.480;2023-02-10T07:05:16;12.40;;;2.53;;
21258;SDS011;10787;53.364;-1.480;2023-02-10T07:07:42;9.87;;;2.50;;
21258;SDS011;10787;53.364;-1.480;2023-02-10T07:10:08;10.23;;;2.43;;
21258;SDS011;10787;53.364;-1.480;2023-02-10T07:12:35;11.70;;;2.30;;
21258;SDS011;10787;53.364;-1.480;2023-02-10T07:15:01;11.97;;;2.80;;
21258;SDS011;10787;53.364;-1.480;2023-02-10T07:17:26;6.63;;;2.00;;
21258;SDS011;10787;53.364;-1.480;2023-02-10T07:19:52;9.23;;;2.07;;
21258;SDS011;10787;53.364;-1.480;2023-02-10T07:22:18;11.40;;;2.20;;
21258;SDS011;10787;53.364;-1.480;2023-02-10T07:24:45;10.20;;;2.30;;
21258;SDS011;10787;53.364;-1.480;2023-02-10T07:27:12;8.80;;;2.00;;
21258;SDS011;10787;53.364;-1.480;2023-02-10T07:29:38;8.40;;;2.40;;
21258;SDS011;10787;53.364;-1.480;2023-02-10T07:32:04;10.23;;;2.40;;
21258;SDS011;10787;53.364;-1.480;2023-02-10T07:34:30;11.20;;;2.53;;
21258;SDS011;10787;53.364;-1.480;2023-02-10T07:36:59;8.07;;;1.90;;
21258;SDS011;10787;53.364;-1.480;2023-02-10T07:39:25;11.43;;;2.20;;
21258;SDS011;10787;53.364;-1.480;2023-02-10T07:41:51;10.63;;;2.60;;
21258;SDS011;10787;53.364;-1.480;2023-02-10T07:44:18;14.07;;;2.73;;
21258;SDS011;10787;53.364;-1.480;2023-02-10T07:46:47;11.50;;;2.40;;
21258;SDS011;10787;53.364;-1.480;2023-02-10T07:49:13;10.03;;;2.40;;
21258;SDS011;10787;53.364;-1.480;2023-02-10T07:51:38;10.57;;;2.70;;
21258;SDS011;10787;53.364;-1.480;2023-02-10T07:54:04;11.13;;;2.70;;
21258;SDS011;10787;53.364;-1.480;2023-02-10T07:56:31;9.97;;;2.50;;
21258;SDS011;10787;53.364;-1.480;2023-02-10T07:58:57;12.27;;;2.33;;
21258;SDS011;10787;53.364;-1.480;2023-02-10T08:01:23;10.60;;;2.20;;
21258;SDS011;10787;53.364;-1.480;2023-02-10T08:03:49;13.57;;;2.27;;
21258;SDS011;10787;53.364;-1.480;2023-02-10T08:06:22;16.03;;;2.43;;
21258;SDS011;10787;53.364;-1.480;2023-02-10T08:08:49;10.23;;;2.40;;
21258;SDS011;10787;53.364;-1.480;2023-02-10T08:11:15;10.97;;;2.40;;
21258;SDS011;10787;53.364;-1.480;2023-02-10T08:13:41;9.83;;;2.30;;
21258;SDS011;10787;53.364;-1.480;2023-02-10T08:16:07;10.97;;;1.80;;
21258;SDS011;10787;53.364;-1.480;2023-02-10T08:18:35;13.80;;;2.43;;
21258;SDS011;10787;53.364;-1.480;2023-02-10T08:21:04;11.10;;;2.27;;
21258;SDS011;10787;53.364;-1.480;2023-02-10T08:23:31;10.90;;;2.20;;
21258;SDS011;10787;53.364;-1.480;2023-02-10T08:25:57;12.37;;;2.20;;
21258;SDS011;10787;53.364;-1.480;2023-02-10T08:28:23;10.03;;;2.30;;
21258;SDS011;10787;53.364;-1.480;2023-02-10T08:30:48;13.40;;;2.67;;
21258;SDS011;10787;53.364;-1.480;2023-02-10T08:33:14;11.87;;;2.30;;
21258;SDS011;10787;53.364;-1.480;2023-02-10T08:35:40;12.27;;;2.90;;
21258;SDS011;10787;53.364;-1.480;2023-02-10T08:38:06;11.63;;;2.80;;
21258;SDS011;10787;53.364;-1.480;2023-02-10T08:40:36;8.27;;;2.20;;
21258;SDS011;10787;53.364;-1.480;2023-02-10T08:43:02;9.50;;;2.20;;
21258;SDS011;10787;53.364;-1.480;2023-02-10T08:45:28;14.40;;;2.43;;
21258;SDS011;10787;53.364;-1.480;2023-02-10T08:47:53;11.67;;;2.33;;
21258;SDS011;10787;53.364;-1.480;2023-02-10T08:50:19;15.30;;;2.57;;
21258;SDS011;10787;53.364;-1.480;2023-02-10T08:52:45;10.50;;;2.43;;
21258;SDS011;10787;53.364;-1.480;2023-02-10T08:55:11;11.30;;;2.33;;
21258;SDS011;10787;53.364;-1.480;2023-02-10T08:57:37;11.97;;;2.53;;
21258;SDS011;10787;53.364;-1.480;2023-02-10T09:00:04;13.67;;;2.40;;
21258;SDS011;10787;53.364;-1.480;2023-02-10T09:02:31;9.77;;;2.60;;
21258;SDS011;10787;53.364;-1.480;2023-02-10T09:04:57;14.83;;;2.40;;
21258;SDS011;10787;53.364;-1.480;2023-02-10T09:07:22;9.13;;;2.47;;
21258;SDS011;10787;53.364;-1.480;2023-02-10T09:09:48;10.50;;;2.30;;
21258;SDS011;10787;53.364;-1.480;2023-02-10T09:12:14;9.63;;;3.00;;
21258;SDS011;10787;53.364;-1.480;2023-02-10T09:14:40;11.23;;;2.10;;
21258;SDS011;10787;53.364;-1.480;2023-02-10T09:17:06;10.00;;;2.27;;
21258;SDS011;10787;53.364;-1.480;2023-02-10T09:19:36;14.80;;;2.40;;
21258;SDS011;10787;53.364;-1.480;2023-02-10T09:22:06;12.03;;;2.47;;
21258;SDS011;10787;53.364;-1.480;2023-02-10T09:24:32;13.53;;;2.47;;
21258;SDS011;10787;53.364;-1.480;2023-02-10T09:26:58;7.43;;;1.90;;
21258;SDS011;10787;53.364;-1.480;2023-02-10T09:29:27;8.33;;;2.00;;
21258;SDS011;10787;53.364;-1.480;2023-02-10T09:31:56;9.47;;;1.80;;
21258;SDS011;10787;53.364;-1.480;2023-02-10T09:34:22;11.47;;;2.17;;
21258;SDS011;10787;53.364;-1.480;2023-02-10T09:36:48;9.90;;;1.90;;
21258;SDS011;10787;53.364;-1.480;2023-02-10T09:39:13;12.67;;;2.50;;
21258;SDS011;10787;53.364;-1.480;2023-02-10T09:41:41;9.87;;;1.87;;
21258;SDS011;10787;53.364;-1.480;2023-02-10T10:00:42;9.00;;;2.20;;
21258;SDS011;10787;53.364;-1.480;2023-02-10T10:03:13;8.47;;;2.07;;
21258;SDS011;10787;53.364;-1.480;2023-02-10T10:06:09;8.70;;;2.40;;
21258;SDS011;10787;53.364;-1.480;2023-02-10T10:11:33;9.40;;;2.03;;
21258;SDS011;10787;53.364;-1.480;2023-02-10T10:14:04;8.53;;;2.13;;
21258;SDS011;10787;53.364;-1.480;2023-02-10T10:21:57;11.53;;;2.20;;
21258;SDS011;10787;53.364;-1.480;2023-02-10T10:24:33;8.30;;;2.17;;
21258;SDS011;10787;53.364;-1.480;2023-02-10T10:27:11;9.53;;;2.00;;
21258;SDS011;10787;53.364;-1.480;2023-02-10T10:29:44;9.87;;;2.20;;
21258;SDS011;10787;53.364;-1.480;2023-02-10T10:32:32;10.43;;;2.20;;
21258;SDS011;10787;53.364;-1.480;2023-02-10T10:35:42;11.53;;;2.50;;
21258;SDS011;10787;53.364;-1.480;2023-02-10T10:38:14;15.20;;;2.67;;
21258;SDS011;10787;53.364;-1.480;2023-02-10T10:40:53;21.50;;;6.33;;
21258;SDS011;10787;53.364;-1.480;2023-02-10T10:43:28;20.60;;;9.27;;
21258;SDS011;10787;53.364;-1.480;2023-02-10T10:46:02;20.53;;;7.20;;
21258;SDS011;10787;53.364;-1.480;2023-02-10T10:48:31;13.97;;;3.90;;
21258;SDS011;10787;53.364;-1.480;2023-02-10T10:50:59;8.87;;;2.67;;
21258;SDS011;10787;53.364;-1.480;2023-02-10T10:58:57;9.57;;;1.80;;
21258;SDS011;10787;53.364;-1.480;2023-02-10T11:01:31;10.63;;;2.10;;
21258;SDS011;10787;53.364;-1.480;2023-02-10T11:04:33;7.57;;;1.60;;
21258;SDS011;10787;53.364;-1.480;2023-02-10T11:06:57;8.27;;;1.80;;
21258;SDS011;10787;53.364;-1.480;2023-02-10T11:09:31;6.90;;;1.73;;
21258;SDS011;10787;53.364;-1.480;2023-02-10T11:14:44;6.97;;;1.70;;
21258;SDS011;10787;53.364;-1.480;2023-02-10T11:20:00;6.63;;;1.70;;
21258;SDS011;10787;53.364;-1.480;2023-02-10T11:22:29;7.50;;;1.80;;
21258;SDS011;10787;53.364;-1.480;2023-02-10T11:24:59;13.13;;;2.33;;
21258;SDS011;10787;53.364;-1.480;2023-02-10T11:27:27;6.83;;;2.10;;
21258;SDS011;10787;53.364;-1.480;2023-02-10T11:29:54;9.97;;;2.43;;
21258;SDS011;10787;53.364;-1.480;2023-02-10T11:32:33;8.30;;;2.23;;
21258;SDS011;10787;53.364;-1.480;2023-02-10T11:35:01;10.67;;;2.53;;
21258;SDS011;10787;53.364;-1.480;2023-02-10T11:37:35;11.57;;;2.33;;
21258;SDS011;10787;53.364;-1.480;2023-02-10T11:40:05;10.23;;;2.53;;
21258;SDS011;10787;53.364;-1.480;2023-02-10T11:42:46;11.73;;;2.70;;
21258;SDS011;10787;53.364;-1.480;2023-02-10T11:47:45;10.10;;;2.40;;
21258;SDS011;10787;53.364;-1.480;2023-02-10T11:52:50;11.77;;;3.00;;
21258;SDS011;10787;53.364;-1.480;2023-02-10T11:55:16;5.63;;;1.80;;
21258;SDS011;10787;53.364;-1.480;2023-02-10T12:00:50;8.30;;;2.27;;
21258;SDS011;10787;53.364;-1.480;2023-02-10T12:06:36;9.37;;;1.93;;
21258;SDS011;10787;53.364;-1.480;2023-02-10T12:25:01;8.13;;;2.07;;
21258;SDS011;10787;53.364;-1.480;2023-02-10T12:33:35;9.60;;;2.47;;
21258;SDS011;10787;53.364;-1.480;2023-02-10T12:45:07;6.60;;;2.60;;
21258;SDS011;10787;53.364;-1.480;2023-02-10T12:48:17;8.47;;;2.60;;
21258;SDS011;10787;53.364;-1.480;2023-02-10T12:53:47;8.50;;;2.50;;
21258;SDS011;10787;53.364;-1.480;2023-02-10T12:58:57;13.77;;;3.00;;
21258;SDS011;10787;53.364;-1.480;2023-02-10T13:01:30;9.23;;;3.53;;
21258;SDS011;10787;53.364;-1.480;2023-02-10T13:04:21;9.47;;;3.03;;
21258;SDS011;10787;53.364;-1.480;2023-02-10T13:07:14;9.87;;;2.80;;
21258;SDS011;10787;53.364;-1.480;2023-02-10T13:10:02;10.33;;;3.13;;
21258;SDS011;10787;53.364;-1.480;2023-02-10T13:12:45;9.83;;;3.00;;
21258;SDS011;10787;53.364;-1.480;2023-02-10T13:15:23;15.43;;;3.30;;
21258;SDS011;10787;53.364;-1.480;2023-02-10T13:17:53;9.17;;;3.10;;
21258;SDS011;10787;53.364;-1.480;2023-02-10T13:35:41;7.63;;;3.43;;
21258;SDS011;10787;53.364;-1.480;2023-02-10T13:38:09;14.10;;;4.00;;
21258;SDS011;10787;53.364;-1.480;2023-02-10T13:40:46;8.67;;;3.50;;
21258;SDS011;10787;53.364;-1.480;2023-02-10T13:43:27;8.97;;;3.87;;
21258;SDS011;10787;53.364;-1.480;2023-02-10T13:45:58;12.47;;;4.00;;
21258;SDS011;10787;53.364;-1.480;2023-02-10T13:48:27;10.97;;;3.77;;
21258;SDS011;10787;53.364;-1.480;2023-02-10T13:50:57;6.97;;;2.97;;
21258;SDS011;10787;53.364;-1.480;2023-02-10T13:58:50;9.13;;;3.13;;
21258;SDS011;10787;53.364;-1.480;2023-02-10T14:01:30;4.60;;;2.63;;
21258;SDS011;10787;53.364;-1.480;2023-02-10T14:04:04;6.63;;;2.80;;
21258;SDS011;10787;53.364;-1.480;2023-02-10T14:06:52;9.23;;;3.40;;
21258;SDS011;10787;53.364;-1.480;2023-02-10T14:11:54;9.40;;;3.80;;
21258;SDS011;10787;53.364;-1.480;2023-02-10T14:17:23;12.80;;;4.90;;
21258;SDS011;10787;53.364;-1.480;2023-02-10T14:19:53;10.30;;;4.30;;
21258;SDS011;10787;53.364;-1.480;2023-02-10T14:24:55;7.20;;;4.10;;
21258;SDS011;10787;53.364;-1.480;2023-02-10T14:27:25;10.03;;;5.10;;
21258;SDS011;10787;53.364;-1.480;2023-02-10T14:29:54;8.57;;;4.80;;
21258;SDS011;10787;53.364;-1.480;2023-02-10T14:32:23;15.63;;;5.30;;
21258;SDS011;10787;53.364;-1.480;2023-02-10T14:34:53;10.53;;;5.10;;
21258;SDS011;10787;53.364;-1.480;2023-02-10T14:37:23;11.30;;;5.20;;
21258;SDS011;10787;53.364;-1.480;2023-02-10T14:39:50;13.20;;;6.10;;
21258;SDS011;10787;53.364;-1.480;2023-02-10T14:42:18;9.80;;;5.27;;
21258;SDS011;10787;53.364;-1.480;2023-02-10T14:44:45;16.23;;;9.93;;
21258;SDS011;10787;53.364;-1.480;2023-02-10T14:47:17;11.93;;;6.27;;
21258;SDS011;10787;53.364;-1.480;2023-02-10T14:49:48;13.33;;;5.37;;
21258;SDS011;10787;53.364;-1.480;2023-02-10T14:52:24;8.97;;;4.87;;
21258;SDS011;10787;53.364;-1.480;2023-02-10T14:54:58;10.70;;;5.27;;
21258;SDS011;10787;53.364;-1.480;2023-02-10T14:57:25;10.83;;;5.50;;
21258;SDS011;10787;53.364;-1.480;2023-02-10T14:59:56;9.73;;;5.43;;
21258;SDS011;10787;53.364;-1.480;2023-02-10T15:02:24;11.20;;;5.80;;
21258;SDS011;10787;53.364;-1.480;2023-02-10T15:04:53;10.37;;;5.83;;
21258;SDS011;10787;53.364;-1.480;2023-02-10T15:07:31;11.90;;;6.17;;
21258;SDS011;10787;53.364;-1.480;2023-02-10T15:11:00;9.93;;;5.50;;
21258;SDS011;10787;53.364;-1.480;2023-02-10T15:12:58;10.07;;;6.00;;
21258;SDS011;10787;53.364;-1.480;2023-02-10T15:15:35;10.70;;;7.03;;
21258;SDS011;10787;53.364;-1.480;2023-02-10T15:18:07;13.10;;;8.27;;
21258;SDS011;10787;53.364;-1.480;2023-02-10T15:20:39;13.30;;;7.80;;
21258;SDS011;10787;53.364;-1.480;2023-02-10T15:23:15;12.30;;;7.60;;
21258;SDS011;10787;53.364;-1.480;2023-02-10T15:25:42;11.50;;;7.33;;
21258;SDS011;10787;53.364;-1.480;2023-02-10T15:36:32;13.30;;;6.37;;
21258;SDS011;10787;53.364;-1.480;2023-02-10T15:39:04;14.63;;;6.43;;
21258;SDS011;10787;53.364;-1.480;2023-02-10T15:49:51;14.30;;;7.20;;
21258;SDS011;10787;53.364;-1.480;2023-02-10T15:52:20;13.70;;;7.50;;
21258;SDS011;10787;53.364;-1.480;2023-02-10T15:54:47;12.10;;;7.87;;
21258;SDS011;10787;53.364;-1.480;2023-02-10T15:57:16;11.13;;;7.53;;
21258;SDS011;10787;53.364;-1.480;2023-02-10T15:59:57;13.30;;;7.93;;
21258;SDS011;10787;53.364;-1.480;2023-02-10T16:02:23;11.77;;;8.03;;
21258;SDS011;10787;53.364;-1.480;2023-02-10T16:04:51;12.13;;;7.83;;
21258;SDS011;10787;53.364;-1.480;2023-02-10T16:07:18;12.73;;;8.03;;
21258;SDS011;10787;53.364;-1.480;2023-02-10T16:09:50;11.90;;;7.57;;
21258;SDS011;10787;53.364;-1.480;2023-02-10T16:12:16;12.17;;;8.10;;
21258;SDS011;10787;53.364;-1.480;2023-02-10T16:14:42;13.10;;;7.93;;
21258;SDS011;10787;53.364;-1.480;2023-02-10T16:17:08;12.70;;;8.53;;
21258;SDS011;10787;53.364;-1.480;2023-02-10T16:19:36;11.13;;;8.33;;
21258;SDS011;10787;53.364;-1.480;2023-02-10T16:22:02;12.40;;;8.60;;
21258;SDS011;10787;53.364;-1.480;2023-02-10T16:24:28;13.03;;;9.17;;
21258;SDS011;10787;53.364;-1.480;2023-02-10T16:26:56;16.07;;;9.50;;
21258;SDS011;10787;53.364;-1.480;2023-02-10T16:29:24;13.37;;;9.93;;
21258;SDS011;10787;53.364;-1.480;2023-02-10T16:31:51;44.63;;;28.80;;
21258;SDS011;10787;53.364;-1.480;2023-02-10T16:34:18;21.00;;;12.87;;
21258;SDS011;10787;53.364;-1.480;2023-02-10T16:36:44;14.00;;;9.90;;
21258;SDS011;10787;53.364;-1.480;2023-02-10T16:39:14;19.03;;;10.30;;
21258;SDS011;10787;53.364;-1.480;2023-02-10T16:41:42;14.30;;;9.50;;
21258;SDS011;10787;53.364;-1.480;2023-02-10T16:44:09;13.70;;;9.23;;
21258;SDS011;10787;53.364;-1.480;2023-02-10T16:46:34;13.50;;;9.93;;
21258;SDS011;10787;53.364;-1.480;2023-02-10T16:49:00;14.53;;;10.23;;
21258;SDS011;10787;53.364;-1.480;2023-02-10T16:51:26;14.20;;;10.10;;
21258;SDS011;10787;53.364;-1.480;2023-02-10T16:53:53;18.13;;;12.90;;
21258;SDS011;10787;53.364;-1.480;2023-02-10T16:56:20;15.27;;;11.63;;
21258;SDS011;10787;53.364;-1.480;2023-02-10T16:58:46;15.73;;;11.40;;
21258;SDS011;10787;53.364;-1.480;2023-02-10T17:01:13;16.50;;;11.17;;
21258;SDS011;10787;53.364;-1.480;2023-02-10T17:03:38;21.57;;;15.93;;
21258;SDS011;10787;53.364;-1.480;2023-02-10T17:06:04;20.27;;;15.27;;
21258;SDS011;10787;53.364;-1.480;2023-02-10T17:08:31;18.87;;;13.07;;